EYVI

Vilnius International Airport

Vilnius, Lithuania
METAR EYVI 190720Z 01010KT 9999 SCT028 BKN074 23/17 Q1007 BECMG BKN030CB
Observed Flight Rules
Jul-19 @ 07:20 UTC (17 minutes ago) Visual Flight Rules
Wind Visibility Clouds
10° at 10 knots 10,000+ meters
  • Scattered at 2,800' AGL
  • Broken at 7,400' AGL
Temperatures Readings
Current 23°C / 73°F
Dewpoint 17°C / 63°F
Humidity 69%
Altimeter 29.73" Hg
Pressure 1007 hPa
Elevation 197
METAR EYVI 190720Z 01010KT 9999 SCT028 BKN074 23/17 Q1007 BECMG BKN030CB
Observed Flight Rules
Jul-19 @ 07:20 UTC
(17 minutes ago)
VFR
Wind Visibility
10° at 10 knots 10,000+ meters
Clouds
  • Scattered at 2,800' AGL
  • Broken at 7,400' AGL
Temperature Dewpoint
23°C / 73°F 17°C / 63°F
Humidity Altimeter Pressure
69% 29.73" Hg 1007 hPa